createdAt,value
2022-12-18T00:00:07.488Z,22.30
2022-12-18T00:02:37.207Z,22.50
2022-12-18T00:05:05.920Z,22.70
2022-12-18T00:07:34.011Z,22.50
2022-12-18T00:10:02.081Z,22.30
2022-12-18T00:12:30.440Z,21.50
2022-12-18T00:14:58.659Z,19.80
2022-12-18T00:17:26.713Z,19.70
2022-12-18T00:19:56.233Z,20.90
2022-12-18T00:22:24.359Z,21.10
2022-12-18T00:24:52.526Z,21.70
2022-12-18T00:27:20.666Z,22.00
2022-12-18T00:29:49.938Z,22.00
2022-12-18T00:32:18.085Z,21.20
2022-12-18T00:34:46.278Z,21.10
2022-12-18T00:37:20.077Z,21.20
2022-12-18T00:39:50.613Z,20.30
2022-12-18T00:42:36.485Z,20.60
2022-12-18T00:45:10.632Z,19.80
2022-12-18T00:47:40.428Z,20.40
2022-12-18T00:50:10.163Z,21.00
2022-12-18T00:52:47.002Z,21.20
2022-12-18T00:55:15.402Z,21.40
2022-12-18T00:57:43.819Z,21.30
2022-12-18T01:00:14.609Z,22.00
2022-12-18T01:02:43.274Z,20.70
2022-12-18T01:05:12.646Z,19.90
2022-12-18T01:07:42.329Z,20.30
2022-12-18T01:10:13.702Z,19.70
2022-12-18T01:12:41.793Z,19.20
2022-12-18T01:15:11.728Z,19.20
2022-12-18T01:17:40.129Z,19.40
2022-12-18T01:20:09.534Z,20.70
2022-12-18T01:22:37.877Z,21.20
2022-12-18T01:25:08.321Z,20.30
2022-12-18T01:27:36.668Z,20.00
2022-12-18T01:30:05.816Z,20.00
2022-12-18T01:32:34.400Z,20.20
2022-12-18T01:35:02.559Z,20.30
2022-12-18T01:37:30.743Z,19.90
2022-12-18T01:39:58.896Z,20.60
2022-12-18T01:42:28.512Z,20.60
2022-12-18T01:45:00.354Z,19.00
2022-12-18T01:47:32.849Z,19.00
2022-12-18T01:50:03.903Z,19.40
2022-12-18T01:52:34.077Z,20.00
2022-12-18T01:55:04.102Z,21.10
2022-12-18T01:57:34.163Z,20.40
2022-12-18T02:00:07.049Z,20.80
2022-12-18T02:02:35.427Z,20.50
2022-12-18T02:05:05.199Z,20.10
2022-12-18T02:07:42.099Z,20.20
2022-12-18T02:10:18.730Z,20.70
2022-12-18T02:12:53.847Z,20.90
2022-12-18T02:15:27.718Z,19.90
2022-12-18T02:18:00.720Z,20.00
2022-12-18T02:20:35.720Z,20.10
2022-12-18T02:23:11.943Z,20.10
2022-12-18T02:26:03.721Z,19.90
2022-12-18T02:28:35.698Z,19.50
2022-12-18T02:31:07.087Z,19.70
2022-12-18T02:33:38.208Z,19.90
2022-12-18T02:36:07.758Z,20.20
2022-12-18T02:38:37.110Z,20.00
2022-12-18T02:41:07.723Z,20.50
2022-12-18T02:43:36.133Z,20.20
2022-12-18T02:46:30.511Z,19.80
2022-12-18T02:49:08.594Z,18.90
2022-12-18T02:51:44.977Z,19.50
2022-12-18T02:54:22.511Z,19.70
2022-12-18T02:56:56.694Z,20.10
2022-12-18T02:59:33.514Z,20.50
2022-12-18T03:02:09.006Z,20.70
2022-12-18T03:04:44.769Z,20.60
2022-12-18T03:07:20.776Z,19.80
2022-12-18T03:09:51.871Z,19.90
2022-12-18T03:12:26.435Z,19.90
2022-12-18T03:15:00.352Z,19.90
2022-12-18T03:17:32.226Z,19.90
2022-12-18T03:20:05.303Z,19.90
2022-12-18T03:22:35.938Z,19.90
2022-12-18T03:25:08.427Z,19.90
2022-12-18T03:27:41.224Z,19.90
2022-12-18T03:30:13.239Z,20.30
2022-12-18T03:32:45.467Z,21.10
2022-12-18T03:35:19.476Z,20.70
2022-12-18T03:37:47.764Z,20.00
2022-12-18T03:40:16.028Z,20.00
2022-12-18T03:42:50.356Z,20.00
2022-12-18T03:45:26.224Z,18.70
2022-12-18T03:48:03.299Z,19.80
2022-12-18T03:50:41.394Z,19.30
2022-12-18T03:53:21.559Z,19.70
2022-12-18T03:55:51.416Z,19.90
2022-12-18T03:58:25.479Z,19.90
2022-12-18T04:00:56.616Z,19.70
2022-12-18T04:03:26.893Z,19.10
2022-12-18T04:05:57.524Z,19.80
2022-12-18T04:08:26.890Z,19.80
2022-12-18T04:10:55.245Z,19.70
2022-12-18T04:13:31.289Z,19.70
2022-12-18T04:15:59.562Z,19.00
2022-12-18T04:18:27.769Z,18.40
2022-12-18T04:20:56.228Z,19.10
2022-12-18T04:23:24.342Z,19.00
2022-12-18T04:25:52.453Z,19.40
2022-12-18T04:28:20.628Z,19.60
2022-12-18T04:30:54.092Z,19.60
2022-12-18T04:33:22.237Z,20.20
2022-12-18T04:35:50.365Z,19.70
2022-12-18T04:38:18.469Z,19.60
2022-12-18T04:40:46.640Z,20.50
2022-12-18T04:43:14.842Z,20.00
2022-12-18T04:45:43.011Z,19.70
2022-12-18T04:48:12.615Z,20.60
2022-12-18T04:50:41.175Z,19.80
2022-12-18T04:53:09.342Z,20.20
2022-12-18T04:55:38.261Z,20.60
2022-12-18T04:58:06.956Z,20.30
2022-12-18T05:00:35.078Z,19.20
2022-12-18T05:03:03.703Z,18.60
2022-12-18T05:05:33.289Z,18.50
2022-12-18T05:08:02.268Z,18.50
2022-12-18T05:10:37.604Z,18.40
2022-12-18T05:13:06.303Z,19.40
2022-12-18T05:15:35.785Z,20.30
2022-12-18T05:18:04.721Z,20.60
2022-12-18T05:20:34.263Z,20.80
2022-12-18T05:23:02.376Z,20.80
2022-12-18T05:25:30.469Z,20.30
2022-12-18T05:27:59.224Z,19.40
2022-12-18T05:30:28.597Z,19.40
2022-12-18T05:32:56.865Z,19.50
2022-12-18T05:35:24.920Z,19.40
2022-12-18T05:37:54.437Z,19.80
2022-12-18T05:40:22.580Z,19.80
2022-12-18T05:42:50.755Z,19.50
2022-12-18T05:45:19.036Z,19.60
2022-12-18T05:47:47.329Z,19.30
2022-12-18T05:50:15.481Z,18.70
2022-12-18T05:52:43.654Z,18.80
2022-12-18T05:55:13.194Z,19.00
2022-12-18T05:57:41.335Z,18.80
2022-12-18T06:00:11.076Z,19.40
2022-12-18T06:02:39.329Z,19.40
2022-12-18T06:05:08.295Z,19.30
2022-12-18T06:07:36.406Z,20.60
2022-12-18T06:10:04.911Z,19.90
2022-12-18T06:12:34.883Z,19.50
2022-12-18T06:15:03.045Z,19.60
2022-12-18T06:17:31.978Z,20.60
2022-12-18T06:20:00.163Z,19.60
2022-12-18T06:22:28.419Z,19.80
2022-12-18T06:24:56.611Z,19.40
2022-12-18T06:27:24.776Z,19.30
2022-12-18T06:29:54.665Z,19.30
2022-12-18T06:32:22.871Z,19.30
2022-12-18T06:34:51.024Z,19.30
2022-12-18T06:37:19.224Z,18.60
2022-12-18T06:39:47.290Z,19.10
2022-12-18T06:42:15.367Z,19.10
2022-12-18T06:44:43.597Z,19.10
2022-12-18T06:47:13.399Z,19.40
2022-12-18T06:49:41.533Z,19.60
2022-12-18T06:52:09.714Z,19.80
2022-12-18T06:54:37.951Z,19.90
2022-12-18T06:57:06.116Z,19.80
2022-12-18T06:59:34.273Z,19.90
2022-12-18T07:02:02.565Z,19.80
2022-12-18T07:04:32.555Z,19.30
2022-12-18T07:07:00.772Z,19.50
2022-12-18T07:09:29.576Z,19.10
2022-12-18T07:11:57.734Z,18.80
2022-12-18T07:14:26.137Z,18.30
2022-12-18T07:16:54.327Z,18.90
2022-12-18T07:19:25.551Z,19.60
2022-12-18T07:21:55.063Z,18.50
2022-12-18T07:24:23.214Z,18.70
2022-12-18T07:26:51.311Z,18.90
2022-12-18T07:29:19.479Z,19.10
2022-12-18T07:31:47.716Z,18.80
2022-12-18T07:34:17.146Z,19.30
2022-12-18T07:36:45.327Z,19.30
2022-12-18T07:39:15.033Z,19.20
2022-12-18T07:41:47.502Z,18.40
2022-12-18T07:44:16.127Z,18.60
2022-12-18T07:46:44.247Z,18.50
2022-12-18T07:49:12.406Z,18.90
2022-12-18T07:51:40.528Z,18.80
2022-12-18T07:54:08.603Z,17.60
2022-12-18T07:56:38.112Z,17.90
2022-12-18T07:59:06.239Z,18.40
2022-12-18T08:01:35.991Z,18.50
2022-12-18T08:04:04.237Z,19.00
2022-12-18T08:06:32.381Z,19.30
2022-12-18T08:09:00.619Z,18.90
2022-12-18T08:11:30.929Z,18.90
2022-12-18T08:14:00.666Z,18.60
2022-12-18T08:16:29.065Z,18.80
2022-12-18T08:18:57.400Z,18.30
2022-12-18T08:21:27.756Z,18.90
2022-12-18T08:23:57.118Z,19.40
2022-12-18T08:26:27.973Z,19.80
2022-12-18T08:28:57.241Z,21.50
2022-12-18T08:31:28.054Z,21.10
2022-12-18T08:33:56.386Z,20.30
2022-12-18T08:36:26.364Z,19.70
2022-12-18T08:38:55.467Z,20.70
2022-12-18T08:41:23.929Z,21.00
2022-12-18T08:44:09.329Z,20.40
2022-12-18T08:46:40.881Z,18.70
2022-12-18T08:49:10.577Z,19.90
2022-12-18T08:51:39.069Z,20.10
2022-12-18T08:54:08.143Z,20.20
2022-12-18T08:56:36.573Z,20.50
2022-12-18T08:59:05.418Z,20.30
2022-12-18T09:01:33.803Z,20.30
2022-12-18T09:04:05.000Z,20.30
2022-12-18T09:06:34.912Z,22.00
2022-12-18T09:09:03.677Z,21.40
2022-12-18T09:11:32.735Z,21.20
2022-12-18T09:14:02.710Z,21.20
2022-12-18T09:16:33.011Z,20.70
2022-12-18T09:19:02.405Z,21.30
2022-12-18T09:21:35.867Z,20.80
2022-12-18T09:24:08.903Z,20.80
2022-12-18T09:26:37.411Z,21.20
2022-12-18T09:29:05.687Z,21.40
2022-12-18T09:31:33.828Z,21.50
2022-12-18T09:34:02.125Z,21.20
2022-12-18T09:36:31.614Z,21.50
2022-12-18T09:39:02.613Z,21.70
2022-12-18T09:41:45.399Z,21.90
2022-12-18T09:44:22.242Z,22.10
2022-12-18T09:46:56.700Z,22.00
2022-12-18T09:49:28.869Z,21.90
2022-12-18T09:52:04.047Z,22.10
2022-12-18T09:54:37.298Z,22.60
2022-12-18T09:57:06.292Z,23.40
2022-12-18T09:59:38.345Z,23.80
2022-12-18T10:02:20.117Z,24.40
2022-12-18T10:04:56.024Z,23.80
2022-12-18T10:07:35.015Z,23.60
2022-12-18T10:10:10.128Z,23.70
2022-12-18T10:12:44.403Z,24.20
2022-12-18T10:15:18.698Z,24.00
2022-12-18T10:17:51.385Z,24.10
2022-12-18T10:20:37.925Z,25.50
2022-12-18T10:23:18.759Z,25.90
2022-12-18T10:25:54.016Z,26.40
2022-12-18T10:28:23.674Z,26.20
2022-12-18T10:30:51.909Z,26.20
2022-12-18T10:33:23.237Z,26.60
2022-12-18T10:35:55.816Z,26.70
2022-12-18T10:38:28.358Z,27.10
2022-12-18T10:40:58.600Z,27.30
2022-12-18T10:43:29.159Z,27.50
2022-12-18T10:46:15.554Z,28.30
2022-12-18T10:48:54.403Z,28.80
2022-12-18T10:51:24.924Z,29.30
2022-12-18T10:54:03.614Z,29.50
2022-12-18T10:56:35.233Z,29.90
2022-12-18T10:59:06.070Z,33.50
2022-12-18T11:01:52.671Z,36.20
2022-12-18T11:04:23.439Z,36.50
2022-12-18T11:07:00.121Z,36.10
2022-12-18T11:09:30.900Z,35.40
2022-12-18T11:12:01.489Z,34.70
2022-12-18T11:14:31.545Z,33.40
2022-12-18T11:19:56.228Z,32.60
2022-12-18T11:22:28.812Z,32.20
2022-12-18T11:25:30.932Z,32.20
2022-12-18T11:27:51.465Z,31.60
2022-12-18T11:30:24.949Z,31.30
2022-12-18T11:32:56.311Z,31.90
2022-12-18T11:35:34.392Z,30.90
2022-12-18T11:38:12.740Z,30.60
2022-12-18T11:40:46.395Z,30.20
2022-12-18T11:43:19.091Z,29.90
2022-12-18T11:45:54.360Z,29.80
2022-12-18T11:48:27.553Z,29.70
2022-12-18T11:50:57.389Z,29.80
2022-12-18T11:53:27.064Z,29.60
2022-12-18T11:56:10.173Z,29.40
2022-12-18T11:58:49.014Z,29.10
2022-12-18T12:01:43.346Z,28.70
2022-12-18T12:04:45.616Z,28.50
2022-12-18T12:07:27.119Z,27.80
2022-12-18T12:10:05.746Z,27.60
2022-12-18T12:12:51.158Z,27.80
2022-12-18T12:15:33.872Z,28.40
2022-12-18T12:18:14.001Z,28.00
2022-12-18T12:20:51.609Z,27.30
2022-12-18T12:23:34.735Z,26.90
2022-12-18T12:26:08.140Z,27.10
2022-12-18T12:28:59.454Z,26.40
2022-12-18T12:31:56.378Z,26.00
2022-12-18T12:34:28.797Z,25.70
2022-12-18T12:37:15.895Z,25.00
2022-12-18T12:39:46.864Z,26.00
2022-12-18T12:42:38.273Z,26.10
2022-12-18T12:45:15.963Z,25.50
2022-12-18T12:47:46.098Z,25.20
2022-12-18T12:50:18.766Z,24.80
2022-12-18T12:52:51.004Z,25.40
2022-12-18T12:55:22.333Z,25.00
2022-12-18T12:58:01.819Z,24.90
2022-12-18T13:00:38.259Z,24.90
2022-12-18T13:03:20.167Z,24.70
2022-12-18T13:05:52.965Z,24.50
2022-12-18T13:08:27.377Z,24.50
2022-12-18T13:11:17.869Z,24.30
2022-12-18T13:13:51.836Z,24.00
2022-12-18T13:16:24.158Z,24.40
2022-12-18T13:18:53.428Z,23.90
2022-12-18T13:21:28.128Z,23.90
2022-12-18T13:23:57.372Z,23.20
2022-12-18T13:26:35.274Z,23.10
2022-12-18T13:29:05.279Z,23.30
2022-12-18T13:32:10.289Z,23.20
2022-12-18T13:34:39.780Z,22.70
2022-12-18T13:37:41.872Z,22.50
2022-12-18T13:40:55.351Z,22.20
2022-12-18T13:43:31.921Z,22.40
2022-12-18T13:46:24.780Z,22.60
2022-12-18T13:48:57.219Z,22.70
2022-12-18T13:51:28.064Z,22.90
2022-12-18T13:53:58.951Z,22.80
2022-12-18T13:56:29.500Z,22.70
2022-12-18T13:59:16.972Z,23.00
2022-12-18T14:01:51.065Z,22.70
2022-12-18T14:04:23.414Z,22.20
2022-12-18T14:06:57.999Z,22.50
2022-12-18T14:09:29.341Z,23.10
2022-12-18T14:12:13.113Z,23.80
2022-12-18T14:14:45.695Z,24.10
2022-12-18T14:17:15.245Z,24.40
2022-12-18T14:19:45.881Z,24.40
2022-12-18T14:22:21.142Z,24.40
2022-12-18T14:25:06.518Z,24.70
2022-12-18T14:27:39.198Z,25.40
2022-12-18T14:30:30.236Z,26.00
2022-12-18T14:33:06.515Z,25.90
2022-12-18T14:35:35.258Z,25.80
2022-12-18T14:38:24.796Z,25.50
2022-12-18T14:41:00.955Z,25.70
2022-12-18T14:43:30.702Z,26.20
2022-12-18T14:45:59.729Z,26.20
2022-12-18T14:48:37.468Z,26.20
2022-12-18T14:51:07.658Z,26.90
2022-12-18T14:53:40.508Z,27.00
2022-12-18T14:56:18.941Z,27.20
2022-12-18T14:58:49.594Z,27.10
2022-12-18T15:01:22.476Z,27.00
2022-12-18T15:03:50.798Z,27.10
2022-12-18T15:06:25.831Z,27.00
2022-12-18T15:08:55.873Z,27.40
2022-12-18T15:11:48.320Z,27.70
2022-12-18T15:14:33.229Z,27.70
2022-12-18T15:17:02.399Z,27.50
2022-12-18T15:19:37.591Z,28.20
2022-12-18T15:22:06.716Z,28.20
2022-12-18T15:24:36.515Z,28.20
2022-12-18T15:27:04.753Z,28.60
2022-12-18T15:29:32.953Z,28.70
2022-12-18T15:32:03.695Z,29.00
2022-12-18T15:34:33.520Z,28.60
2022-12-18T15:37:01.705Z,28.50
2022-12-18T15:39:30.376Z,29.30
2022-12-18T15:42:17.264Z,29.20
2022-12-18T15:44:46.134Z,29.80
2022-12-18T15:47:15.116Z,29.90
2022-12-18T15:49:43.230Z,30.00
2022-12-18T15:52:15.305Z,30.00
2022-12-18T15:55:00.911Z,31.40
2022-12-18T15:57:30.416Z,33.00
2022-12-18T15:59:59.446Z,33.40
2022-12-18T16:02:29.222Z,34.00
2022-12-18T16:04:58.210Z,34.90
2022-12-18T16:07:29.183Z,36.30
2022-12-18T16:09:58.934Z,36.10
2022-12-18T16:12:30.410Z,36.80
2022-12-18T16:14:58.529Z,36.80
2022-12-18T16:17:26.773Z,34.10
2022-12-18T16:19:55.083Z,34.30
2022-12-18T16:22:25.790Z,34.70
2022-12-18T16:24:55.180Z,36.20
2022-12-18T16:27:24.464Z,36.70
2022-12-18T16:29:54.148Z,37.20
2022-12-18T16:32:23.713Z,37.80
2022-12-18T16:34:52.808Z,37.60
2022-12-18T16:37:20.995Z,38.30
2022-12-18T16:39:49.117Z,38.20
2022-12-18T16:42:20.318Z,37.80
2022-12-18T16:44:50.703Z,37.00
2022-12-18T16:47:20.689Z,37.70
2022-12-18T16:49:51.660Z,37.10
2022-12-18T16:52:20.541Z,37.70
2022-12-18T16:54:49.038Z,36.90
2022-12-18T16:57:19.525Z,36.90
2022-12-18T16:59:49.867Z,36.10
2022-12-18T17:02:23.431Z,35.90
2022-12-18T17:04:54.682Z,34.00
2022-12-18T17:07:23.357Z,33.60
2022-12-18T17:09:51.623Z,34.00
2022-12-18T17:12:19.811Z,34.30
2022-12-18T17:14:48.124Z,34.60
2022-12-18T17:17:21.753Z,34.70
2022-12-18T17:19:51.752Z,35.60
2022-12-18T17:22:20.563Z,36.70
2022-12-18T17:24:48.827Z,37.50
2022-12-18T17:27:17.639Z,37.40
2022-12-18T17:29:48.397Z,37.20
2022-12-18T17:32:17.265Z,37.50
2022-12-18T17:34:45.627Z,37.80
2022-12-18T17:37:15.444Z,37.10
2022-12-18T17:39:43.603Z,35.50
2022-12-18T17:42:15.351Z,34.40
2022-12-18T17:44:44.725Z,34.50
2022-12-18T17:47:13.164Z,33.70
2022-12-18T17:49:41.455Z,34.00
2022-12-18T17:52:09.698Z,35.00
2022-12-18T17:54:41.870Z,34.90
2022-12-18T17:57:10.373Z,34.70
2022-12-18T17:59:38.608Z,33.50
2022-12-18T18:02:06.914Z,33.40
2022-12-18T18:04:35.129Z,34.30
2022-12-18T18:07:03.343Z,34.80
2022-12-18T18:09:31.535Z,35.30
2022-12-18T18:12:18.290Z,35.20
2022-12-18T18:14:46.468Z,35.00
2022-12-18T18:17:14.789Z,36.10
2022-12-18T18:19:43.227Z,36.00
2022-12-18T18:22:16.376Z,35.70
2022-12-18T18:24:44.824Z,35.30
2022-12-18T18:27:14.200Z,35.40
2022-12-18T18:29:42.474Z,34.80
2022-12-18T18:32:10.529Z,34.50
2022-12-18T18:34:44.325Z,35.30
2022-12-18T18:37:12.364Z,35.30
2022-12-18T18:39:40.529Z,35.10
2022-12-18T18:42:08.645Z,35.00
2022-12-18T18:44:38.163Z,34.70
2022-12-18T18:47:06.981Z,33.10
2022-12-18T18:49:37.695Z,33.70
2022-12-18T18:52:07.247Z,33.70
2022-12-18T18:54:35.271Z,33.70
2022-12-18T18:57:20.109Z,33.60
2022-12-18T18:59:50.324Z,34.50
2022-12-18T19:02:18.948Z,35.30
2022-12-18T19:04:47.363Z,35.40
2022-12-18T19:07:28.119Z,36.30
2022-12-18T19:10:04.092Z,36.60
2022-12-18T19:12:51.554Z,36.80
2022-12-18T19:15:21.609Z,37.80
2022-12-18T19:17:49.885Z,38.00
2022-12-18T19:20:18.598Z,37.60
2022-12-18T19:22:55.823Z,37.10
2022-12-18T19:25:37.135Z,37.00
2022-12-18T19:28:12.034Z,36.50
2022-12-18T19:30:58.823Z,35.60
2022-12-18T19:33:44.380Z,36.30
2022-12-18T19:36:15.437Z,36.30
2022-12-18T19:38:44.791Z,36.30
2022-12-18T19:41:14.631Z,35.90
2022-12-18T19:43:43.064Z,35.80
2022-12-18T19:46:15.354Z,36.90
2022-12-18T19:48:45.036Z,36.70
2022-12-18T19:51:16.381Z,36.30
2022-12-18T19:53:44.961Z,37.20
2022-12-18T19:56:15.816Z,38.10
2022-12-18T19:58:45.153Z,37.80
2022-12-18T20:01:16.508Z,38.90
2022-12-18T20:03:48.028Z,39.70
2022-12-18T20:06:24.921Z,40.80
2022-12-18T20:08:55.765Z,40.80
2022-12-18T20:11:28.294Z,41.40
2022-12-18T20:13:56.399Z,40.70
2022-12-18T20:16:26.199Z,40.00
2022-12-18T20:18:58.133Z,39.40
2022-12-18T20:21:26.908Z,38.80
2022-12-18T20:23:55.819Z,37.70
2022-12-18T20:26:24.812Z,37.70
2022-12-18T20:28:53.276Z,38.00
2022-12-18T20:31:21.566Z,38.50
2022-12-18T20:33:52.212Z,38.20
2022-12-18T20:36:26.895Z,37.90
2022-12-18T20:38:59.336Z,37.50
2022-12-18T20:41:37.500Z,37.80
2022-12-18T20:44:11.178Z,38.00
2022-12-18T20:46:52.342Z,37.60
2022-12-18T20:49:21.836Z,37.60
2022-12-18T20:51:52.384Z,37.20
2022-12-18T20:54:21.005Z,37.60
2022-12-18T20:56:49.133Z,38.30
2022-12-18T20:59:17.354Z,36.70
2022-12-18T21:01:48.544Z,36.00
2022-12-18T21:04:18.290Z,35.90
2022-12-18T21:06:52.941Z,34.60
2022-12-18T21:09:23.977Z,34.60
2022-12-18T21:12:10.391Z,35.50
2022-12-18T21:14:42.551Z,36.00
2022-12-18T21:17:10.889Z,36.50
2022-12-18T21:19:39.325Z,37.10
2022-12-18T21:22:09.037Z,38.30
2022-12-18T21:24:37.078Z,38.60
2022-12-18T21:27:05.343Z,39.70
2022-12-18T21:29:34.792Z,39.50
2022-12-18T21:32:04.173Z,39.70
2022-12-18T21:34:34.230Z,38.70
2022-12-18T21:37:02.865Z,38.40
2022-12-18T21:39:32.895Z,38.50
2022-12-18T21:42:18.642Z,38.10
2022-12-18T21:44:48.905Z,37.50
2022-12-18T21:47:22.893Z,37.70
2022-12-18T21:49:53.042Z,38.40
2022-12-18T21:52:31.378Z,39.00
2022-12-18T21:55:09.048Z,39.70
2022-12-18T21:57:39.446Z,39.90
2022-12-18T22:00:18.597Z,39.90
2022-12-18T22:02:48.760Z,39.20
2022-12-18T22:05:36.391Z,40.50
2022-12-18T22:08:04.730Z,40.90
2022-12-18T22:10:34.572Z,40.90
2022-12-18T22:13:02.678Z,40.00
2022-12-18T22:15:30.846Z,40.70
2022-12-18T22:18:00.447Z,41.30
2022-12-18T22:20:29.815Z,40.90
2022-12-18T22:22:58.399Z,41.60
2022-12-18T22:25:26.932Z,42.70
2022-12-18T22:28:13.809Z,41.80
2022-12-18T22:30:41.920Z,41.70
2022-12-18T22:33:10.077Z,41.30
2022-12-18T22:35:38.189Z,41.00
2022-12-18T22:38:06.538Z,39.10
2022-12-18T22:40:34.655Z,39.30
2022-12-18T22:43:04.168Z,39.60
2022-12-18T22:45:32.345Z,40.00
2022-12-18T22:48:03.277Z,39.90
2022-12-18T22:50:33.774Z,40.00
2022-12-18T22:53:01.921Z,39.40
2022-12-18T22:55:29.990Z,39.50
2022-12-18T22:57:58.075Z,39.60
2022-12-18T23:00:27.742Z,38.80
2022-12-18T23:03:00.365Z,40.00
2022-12-18T23:05:30.429Z,40.00
2022-12-18T23:07:59.285Z,40.90
2022-12-18T23:10:27.627Z,41.50
2022-12-18T23:12:55.870Z,41.70
2022-12-18T23:15:27.814Z,42.10
2022-12-18T23:17:58.953Z,41.70
2022-12-18T23:20:27.984Z,41.20
2022-12-18T23:22:56.239Z,41.90
2022-12-18T23:25:24.647Z,42.90
2022-12-18T23:27:52.781Z,42.80
2022-12-18T23:30:20.963Z,42.10
2022-12-18T23:32:49.245Z,42.30
2022-12-18T23:35:19.145Z,41.30
2022-12-18T23:38:04.187Z,42.00
2022-12-18T23:40:32.553Z,42.10
2022-12-18T23:43:01.157Z,42.70
2022-12-18T23:45:29.337Z,42.00
2022-12-18T23:47:57.392Z,41.30
2022-12-18T23:50:29.737Z,41.80
2022-12-18T23:53:04.997Z,41.30
2022-12-18T23:55:38.464Z,41.00
2022-12-18T23:58:06.626Z,41.70
